Time;durP1;ratioP1;P1;durP2;ratioP2;P2;SDS_P1;SDS_P2;PMS_P1;PMS_P2;Temp;Humidity;BMP_temperature;BMP_pressure;BME280_temperature;BME280_humidity;BME280_pressure;Samples;Min_cycle;Max_cycle;Signal;HPM_P1;HPM_P2
2023/04/22 00:01:17;;;;;;;8.45;4.85;;;12.90;99.90;;;;;;5051185;28;20454;-75
2023/04/22 00:03:43;;;;;;;7.38;4.78;;;12.80;99.90;;;;;;5024731;28;20037;-76
2023/04/22 00:06:10;;;;;;;7.18;4.45;;;12.80;99.90;;;;;;5024649;28;20058;-75
2023/04/22 00:08:36;;;;;;;8.68;4.63;;;13.10;99.90;;;;;;5023051;28;20077;-76
2023/04/22 00:11:02;;;;;;;7.47;4.38;;;12.80;99.90;;;;;;5017809;28;20120;-75
2023/04/22 00:13:28;;;;;;;9.55;4.70;;;12.70;99.90;;;;;;5008695;28;20037;-75
2023/04/22 00:15:53;;;;;;;7.78;4.82;;;12.70;99.90;;;;;;5025875;28;20444;-76
2023/04/22 00:18:20;;;;;;;7.55;4.47;;;12.70;99.90;;;;;;5020127;28;20586;-76
2023/04/22 00:20:45;;;;;;;7.43;4.65;;;12.70;99.90;;;;;;5025856;28;20105;-76
2023/04/22 00:23:12;;;;;;;7.30;4.45;;;12.70;99.90;;;;;;5025896;28;20530;-75
2023/04/22 00:25:39;;;;;;;7.90;4.60;;;12.60;99.90;;;;;;5005505;28;20044;-75
2023/04/22 00:28:05;;;;;;;8.25;4.93;;;12.60;99.90;;;;;;5024543;28;20091;-77
2023/04/22 00:30:31;;;;;;;8.32;4.57;;;12.60;99.90;;;;;;5025185;28;20113;-75
2023/04/22 00:32:56;;;;;;;7.13;4.25;;;12.60;99.90;;;;;;5006319;28;20128;-75
2023/04/22 00:35:22;;;;;;;7.35;4.20;;;12.50;99.90;;;;;;5024374;28;20080;-76
2023/04/22 00:37:48;;;;;;;6.55;4.30;;;12.50;99.90;;;;;;5023962;28;20409;-74
2023/04/22 00:40:14;;;;;;;7.50;4.40;;;12.50;99.90;;;;;;5023108;28;20048;-74
2023/04/22 00:42:42;;;;;;;8.23;5.05;;;12.40;99.90;;;;;;5022107;28;20119;-74
2023/04/22 00:45:10;;;;;;;7.18;4.35;;;12.40;99.90;;;;;;5023791;28;20041;-75
2023/04/22 00:47:37;;;;;;;7.30;4.40;;;12.30;99.90;;;;;;5025253;28;20115;-74
2023/04/22 00:50:03;;;;;;;7.90;5.07;;;12.20;99.90;;;;;;5024161;28;20081;-75
2023/04/22 00:52:29;;;;;;;8.90;5.00;;;12.20;99.90;;;;;;5007416;28;20107;-74
2023/04/22 00:54:55;;;;;;;11.00;5.30;;;12.20;99.90;;;;;;5005029;28;20045;-76
2023/04/22 00:57:21;;;;;;;8.52;5.20;;;12.10;99.90;;;;;;5050003;28;20056;-75
2023/04/22 00:59:48;;;;;;;8.52;5.25;;;12.10;99.90;;;;;;5055882;28;20037;-75
2023/04/22 01:02:14;;;;;;;9.32;5.47;;;12.10;99.90;;;;;;5007887;28;20045;-75
2023/04/22 01:04:40;;;;;;;8.68;4.97;;;12.00;99.90;;;;;;5023127;28;20100;-74
2023/04/22 01:07:06;;;;;;;9.45;5.20;;;12.10;99.90;;;;;;5022182;28;20454;-76
2023/04/22 01:09:32;;;;;;;7.93;4.95;;;12.00;99.90;;;;;;5020391;28;20053;-76
2023/04/22 01:11:58;;;;;;;8.27;4.22;;;11.90;99.90;;;;;;5023783;28;20045;-75
2023/04/22 01:14:24;;;;;;;7.70;4.93;;;11.90;99.90;;;;;;5023837;28;20046;-76
2023/04/22 01:16:55;;;;;;;7.03;4.47;;;11.90;99.90;;;;;;5021956;28;20110;-76
2023/04/22 01:19:22;;;;;;;7.20;4.40;;;11.90;99.90;;;;;;5020344;28;20048;-76
2023/04/22 01:21:50;;;;;;;7.55;5.15;;;11.80;99.90;;;;;;5018703;28;20235;-75
2023/04/22 01:24:16;;;;;;;10.40;5.25;;;11.80;99.90;;;;;;5024022;28;20061;-76
2023/04/22 01:26:42;;;;;;;8.68;5.18;;;11.80;99.90;;;;;;5020680;28;20498;-76
2023/04/22 01:29:08;;;;;;;7.25;4.93;;;11.70;99.90;;;;;;5006151;28;20052;-75
2023/04/22 01:31:34;;;;;;;8.15;5.75;;;11.70;99.90;;;;;;5022207;28;20042;-75
2023/04/22 01:34:00;;;;;;;8.30;5.53;;;11.70;99.90;;;;;;5022668;28;20058;-75
2023/04/22 01:36:26;;;;;;;9.25;5.32;;;11.70;99.90;;;;;;5006395;28;20049;-77
2023/04/22 01:38:52;;;;;;;8.68;5.40;;;11.70;99.90;;;;;;5004757;28;20042;-77
2023/04/22 01:41:18;;;;;;;9.10;5.88;;;11.70;99.90;;;;;;5023311;28;20047;-76
2023/04/22 01:43:44;;;;;;;8.75;5.53;;;11.60;99.90;;;;;;5007102;28;20045;-77
2023/04/22 01:46:10;;;;;;;10.00;5.85;;;11.60;99.90;;;;;;5004864;28;20844;-75
2023/04/22 01:48:37;;;;;;;9.63;5.65;;;11.60;99.90;;;;;;5027979;28;20116;-76
2023/04/22 01:51:03;;;;;;;7.93;5.43;;;11.60;99.90;;;;;;5025412;28;20077;-76
2023/04/22 01:53:29;;;;;;;10.02;6.18;;;11.50;99.90;;;;;;5013258;28;20147;-75
2023/04/22 01:55:54;;;;;;;8.70;5.68;;;11.50;99.90;;;;;;5010306;28;20546;-77
2023/04/22 01:58:20;;;;;;;9.48;6.00;;;11.50;99.90;;;;;;5005546;28;20060;-76
2023/04/22 02:00:46;;;;;;;8.98;5.60;;;11.50;99.90;;;;;;5005669;28;20042;-76
2023/04/22 02:03:12;;;;;;;8.63;5.07;;;11.40;99.90;;;;;;5009014;28;20581;-76
2023/04/22 02:05:38;;;;;;;8.15;5.93;;;11.40;99.90;;;;;;5025861;28;20045;-76
2023/04/22 02:08:04;;;;;;;11.77;5.75;;;11.40;99.90;;;;;;5025187;28;20051;-77
2023/04/22 02:10:32;;;;;;;8.95;5.85;;;11.30;99.90;;;;;;5026240;28;20049;-75
2023/04/22 02:12:58;;;;;;;9.15;6.18;;;11.30;99.90;;;;;;5027861;28;20225;-76
2023/04/22 02:15:24;;;;;;;11.30;6.10;;;11.30;99.90;;;;;;5023404;28;20042;-76
2023/04/22 02:17:50;;;;;;;10.02;6.15;;;11.20;99.90;;;;;;5025967;28;20045;-77
2023/04/22 02:20:16;;;;;;;9.45;6.30;;;11.20;99.90;;;;;;5027062;28;20053;-75
2023/04/22 02:22:42;;;;;;;9.63;5.72;;;11.20;99.90;;;;;;5008308;28;20037;-77
2023/04/22 02:25:11;;;;;;;9.90;6.32;;;11.10;99.90;;;;;;5026805;28;20041;-76
2023/04/22 02:27:38;;;;;;;10.88;6.68;;;11.10;99.90;;;;;;5024942;28;20124;-77
2023/04/22 02:30:04;;;;;;;8.93;5.97;;;11.10;99.90;;;;;;5006217;28;20038;-76
2023/04/22 02:32:30;;;;;;;7.65;5.57;;;11.10;99.90;;;;;;5010742;28;20060;-77
2023/04/22 02:34:56;;;;;;;8.35;5.53;;;11.00;99.90;;;;;;5020273;28;20045;-77
2023/04/22 02:37:22;;;;;;;8.60;5.35;;;11.00;99.90;;;;;;5007049;28;20046;-76
2023/04/22 02:39:48;;;;;;;7.95;5.55;;;11.00;99.90;;;;;;5009238;28;20053;-77
2023/04/22 02:42:14;;;;;;;10.05;6.30;;;11.00;99.90;;;;;;5009842;28;20045;-76
2023/04/22 02:44:40;;;;;;;8.77;5.55;;;10.90;99.90;;;;;;5009114;28;20606;-75
2023/04/22 02:47:06;;;;;;;9.38;6.25;;;10.90;99.90;;;;;;5008746;28;20049;-77
2023/04/22 02:49:32;;;;;;;7.68;5.50;;;10.90;99.90;;;;;;5024889;28;20084;-76
2023/04/22 02:51:58;;;;;;;8.85;5.25;;;10.90;99.90;;;;;;5025059;28;20132;-76
2023/04/22 02:54:23;;;;;;;8.55;5.45;;;10.80;99.90;;;;;;5024706;28;20041;-77
2023/04/22 02:56:52;;;;;;;8.15;5.22;;;10.70;99.90;;;;;;5009012;28;20460;-75
2023/04/22 02:59:18;;;;;;;7.72;3.85;;;10.70;99.90;;;;;;5007413;28;20402;-76
2023/04/22 03:01:43;;;;;;;7.55;4.53;;;10.70;99.90;;;;;;5020633;28;20057;-76
2023/04/22 03:04:11;;;;;;;6.65;4.20;;;10.60;99.90;;;;;;5020943;28;20253;-76
2023/04/22 03:06:36;;;;;;;6.35;3.78;;;10.50;99.90;;;;;;5007860;28;20033;-76
2023/04/22 03:09:02;;;;;;;10.70;5.63;;;10.50;99.90;;;;;;5020992;28;20465;-78
2023/04/22 03:11:28;;;;;;;6.85;4.95;;;10.50;99.90;;;;;;5025580;28;20045;-77
2023/04/22 03:13:54;;;;;;;11.13;6.78;;;10.50;99.90;;;;;;5007431;28;20049;-77
2023/04/22 03:16:22;;;;;;;9.23;5.70;;;10.50;99.90;;;;;;5058838;28;20041;-77
2023/04/22 03:18:48;;;;;;;9.93;5.80;;;10.40;99.90;;;;;;5023439;28;20049;-75
2023/04/22 03:21:14;;;;;;;9.10;6.07;;;10.40;99.90;;;;;;5019180;28;20430;-77
2023/04/22 03:23:40;;;;;;;8.82;6.32;;;10.40;99.90;;;;;;5006770;28;20131;-76
2023/04/22 03:26:06;;;;;;;10.20;6.03;;;10.40;99.90;;;;;;5023131;28;20485;-76
2023/04/22 03:28:31;;;;;;;9.25;6.15;;;10.30;99.90;;;;;;5003837;28;20034;-76
2023/04/22 03:30:57;;;;;;;9.80;6.32;;;10.50;99.90;;;;;;5021746;28;20387;-77
2023/04/22 03:33:23;;;;;;;10.18;7.55;;;10.30;99.90;;;;;;5020672;28;20045;-75
2023/04/22 03:35:49;;;;;;;11.48;7.82;;;10.30;99.90;;;;;;5027598;28;20124;-76
2023/04/22 03:38:15;;;;;;;8.93;6.53;;;10.50;99.90;;;;;;5024278;28;20045;-76
2023/04/22 03:40:44;;;;;;;10.32;7.15;;;10.30;99.90;;;;;;5023788;28;20080;-76
2023/04/22 03:43:10;;;;;;;9.60;6.93;;;10.20;99.90;;;;;;5024860;28;20454;-76
2023/04/22 03:45:35;;;;;;;9.20;6.28;;;10.40;99.90;;;;;;5006072;28;20042;-76
2023/04/22 03:48:01;;;;;;;8.85;6.63;;;10.20;99.90;;;;;;5024496;28;20046;-76
2023/04/22 03:50:27;;;;;;;10.20;6.63;;;10.20;99.90;;;;;;5007766;28;20087;-76
2023/04/22 03:52:53;;;;;;;10.60;6.75;;;10.10;99.90;;;;;;5021366;28;20834;-76
2023/04/22 03:55:22;;;;;;;8.88;6.15;;;10.10;99.90;;;;;;5021822;28;20045;-76
2023/04/22 03:57:47;;;;;;;9.57;6.38;;;10.00;99.90;;;;;;5022957;28;20041;-76
2023/04/22 04:00:13;;;;;;;9.57;6.57;;;10.00;99.90;;;;;;5005392;28;20045;-76
2023/04/22 04:02:40;;;;;;;8.73;6.25;;;10.00;99.90;;;;;;5010297;28;20041;-76
2023/04/22 04:05:08;;;;;;;10.70;6.70;;;10.00;99.90;;;;;;5000816;28;20517;-77
2023/04/22 04:07:33;;;;;;;10.30;7.25;;;9.90;99.90;;;;;;5018735;28;20498;-76
2023/04/22 04:09:59;;;;;;;11.32;7.45;;;9.90;99.90;;;;;;5019499;28;20049;-77
2023/04/22 04:12:25;;;;;;;11.00;7.85;;;9.90;99.90;;;;;;5025475;28;20041;-77
2023/04/22 04:14:51;;;;;;;13.95;8.82;;;9.90;99.90;;;;;;5037920;28;20049;-76
2023/04/22 04:17:17;;;;;;;16.17;8.85;;;9.90;99.90;;;;;;5007792;28;20056;-76
2023/04/22 04:19:42;;;;;;;11.15;8.93;;;9.90;99.90;;;;;;5011424;28;20061;-77
2023/04/22 04:22:09;;;;;;;12.90;8.98;;;9.80;99.90;;;;;;5013092;28;20215;-77
2023/04/22 04:24:35;;;;;;;10.10;7.55;;;9.80;99.90;;;;;;5005087;28;20049;-77
2023/04/22 04:27:02;;;;;;;12.60;9.48;;;9.80;99.90;;;;;;5002827;28;20414;-77
2023/04/22 04:29:27;;;;;;;13.15;9.13;;;9.80;99.90;;;;;;5004950;28;20049;-77
2023/04/22 04:31:54;;;;;;;13.25;9.82;;;9.80;99.90;;;;;;5047145;28;20053;-76
2023/04/22 04:34:20;;;;;;;12.70;9.23;;;9.80;99.90;;;;;;4998629;28;20399;-76
2023/04/22 04:36:46;;;;;;;12.07;9.23;;;9.80;99.90;;;;;;5029471;28;20038;-77
2023/04/22 04:39:12;;;;;;;14.80;9.90;;;9.80;99.90;;;;;;5042956;28;20045;-77
2023/04/22 04:41:37;;;;;;;14.07;9.80;;;10.10;99.90;;;;;;5017585;28;20694;-77
2023/04/22 04:44:03;;;;;;;14.95;10.32;;;9.70;99.90;;;;;;5017107;28;20053;-77
2023/04/22 04:46:31;;;;;;;13.10;10.20;;;9.70;99.90;;;;;;5002888;28;20041;-77
2023/04/22 04:48:57;;;;;;;14.68;9.75;;;9.70;99.90;;;;;;5017887;28;20045;-78
2023/04/22 04:51:23;;;;;;;15.77;10.95;;;9.70;99.90;;;;;;4998254;28;20126;-78
2023/04/22 04:53:50;;;;;;;12.35;9.70;;;9.70;99.90;;;;;;5017167;28;20616;-77
2023/04/22 04:56:15;;;;;;;13.95;9.77;;;9.70;99.90;;;;;;5019856;28;20041;-77
2023/04/22 04:58:41;;;;;;;12.82;9.75;;;9.70;99.90;;;;;;5022220;28;20091;-78
2023/04/22 05:01:07;;;;;;;11.65;8.65;;;9.60;99.90;;;;;;5005470;28;20060;-78
2023/04/22 05:03:33;;;;;;;15.90;9.52;;;9.60;99.90;;;;;;5009199;28;20037;-77
2023/04/22 05:05:59;;;;;;;14.30;10.25;;;9.60;99.90;;;;;;5017715;28;20049;-77
2023/04/22 05:08:24;;;;;;;14.05;9.82;;;9.60;99.90;;;;;;5013648;28;20076;-78
2023/04/22 05:10:50;;;;;;;14.43;10.80;;;9.60;99.90;;;;;;5017355;28;20054;-78
2023/04/22 05:13:16;;;;;;;14.75;11.18;;;9.60;99.90;;;;;;5014612;28;20129;-78
2023/04/22 05:15:42;;;;;;;17.17;11.63;;;9.60;99.90;;;;;;5022010;28;20041;-78
2023/04/22 05:18:09;;;;;;;16.08;11.50;;;9.80;99.90;;;;;;5009991;28;20471;-78
2023/04/22 05:20:35;;;;;;;13.90;9.82;;;9.70;99.90;;;;;;5014574;28;20151;-78
2023/04/22 05:23:01;;;;;;;15.30;10.98;;;9.80;99.90;;;;;;5017523;28;20490;-78
2023/04/22 05:25:26;;;;;;;14.82;10.45;;;10.20;99.90;;;;;;4997982;28;20048;-78
2023/04/22 05:27:52;;;;;;;13.80;11.05;;;9.90;99.90;;;;;;5032968;28;20049;-76
2023/04/22 05:30:18;;;;;;;14.88;10.27;;;10.10;99.90;;;;;;5012064;28;20115;-78
2023/04/22 05:32:44;;;;;;;16.52;10.73;;;10.20;99.90;;;;;;5038071;28;20065;-77
2023/04/22 05:35:10;;;;;;;12.95;9.52;;;10.30;99.90;;;;;;5004840;28;20128;-78
2023/04/22 05:37:36;;;;;;;11.75;9.45;;;10.30;99.90;;;;;;5003696;28;20088;-77
2023/04/22 05:40:01;;;;;;;14.57;10.32;;;10.20;99.90;;;;;;5020574;28;20044;-78
2023/04/22 05:42:27;;;;;;;13.60;9.68;;;10.20;99.90;;;;;;5002534;28;20076;-77
2023/04/22 05:44:53;;;;;;;12.98;9.35;;;10.20;99.90;;;;;;5018546;28;20494;-77
2023/04/22 05:47:18;;;;;;;14.02;10.05;;;10.20;99.90;;;;;;5020938;28;20135;-78
2023/04/22 05:49:44;;;;;;;12.45;9.73;;;10.20;99.90;;;;;;5024586;28;20040;-77
2023/04/22 05:52:10;;;;;;;14.45;9.98;;;10.20;99.90;;;;;;5019593;28;20046;-77
2023/04/22 05:54:36;;;;;;;12.35;8.93;;;10.20;99.90;;;;;;5024469;28;20501;-78
2023/04/22 05:57:02;;;;;;;13.95;8.52;;;10.20;99.90;;;;;;5022316;28;20048;-77
2023/04/22 05:59:28;;;;;;;14.57;10.00;;;10.30;99.90;;;;;;5007676;28;20731;-78
2023/04/22 06:01:53;;;;;;;13.35;9.75;;;10.20;99.90;;;;;;5007769;28;20534;-78
2023/04/22 06:04:20;;;;;;;13.05;8.85;;;10.30;99.90;;;;;;5007413;28;20489;-77
2023/04/22 06:06:46;;;;;;;11.80;8.57;;;10.30;99.90;;;;;;5023287;28;20166;-77
2023/04/22 06:09:12;;;;;;;13.35;9.00;;;10.30;99.90;;;;;;5014024;28;20054;-77
2023/04/22 06:11:39;;;;;;;13.98;9.50;;;10.30;99.90;;;;;;5006380;28;20092;-77
2023/04/22 06:14:05;;;;;;;12.70;9.02;;;10.30;99.90;;;;;;5023467;28;20402;-77
2023/04/22 06:16:31;;;;;;;15.18;9.13;;;10.30;99.90;;;;;;5027755;28;20044;-77
2023/04/22 06:18:56;;;;;;;18.33;9.30;;;10.40;99.90;;;;;;5008123;28;20049;-76
2023/04/22 06:21:22;;;;;;;12.32;8.82;;;10.40;99.90;;;;;;5006319;28;20045;-77
2023/04/22 06:23:48;;;;;;;11.60;8.05;;;10.40;99.90;;;;;;4995498;28;20042;-77
2023/04/22 06:26:13;;;;;;;13.82;9.48;;;10.40;99.90;;;;;;5017596;28;20049;-77
2023/04/22 06:28:39;;;;;;;13.20;9.25;;;10.40;99.90;;;;;;5037310;28;20190;-77
2023/04/22 06:31:05;;;;;;;11.00;8.50;;;10.40;99.90;;;;;;5015552;28;20033;-77
2023/04/22 06:33:30;;;;;;;12.10;9.00;;;10.40;99.90;;;;;;5012472;28;20129;-76
2023/04/22 06:35:56;;;;;;;14.10;8.98;;;10.50;99.90;;;;;;4992930;28;20057;-77
2023/04/22 06:38:22;;;;;;;12.43;8.55;;;10.50;99.90;;;;;;5013695;28;20038;-77
2023/04/22 06:40:48;;;;;;;11.93;8.80;;;10.50;99.90;;;;;;5016015;28;20533;-77
2023/04/22 06:43:13;;;;;;;15.38;9.65;;;10.60;99.90;;;;;;5015595;28;20485;-77
2023/04/22 06:45:42;;;;;;;13.02;9.15;;;10.60;99.90;;;;;;5005082;28;20041;-77
2023/04/22 06:48:08;;;;;;;12.35;8.32;;;10.60;99.90;;;;;;5015579;28;20041;-77
2023/04/22 06:50:33;;;;;;;12.77;9.40;;;10.60;99.90;;;;;;5016400;28;20740;-77
2023/04/22 06:52:59;;;;;;;11.57;8.68;;;10.70;99.90;;;;;;4999549;28;20053;-77
2023/04/22 06:55:25;;;;;;;13.10;9.10;;;10.70;99.90;;;;;;5023561;28;20081;-77
2023/04/22 06:57:51;;;;;;;12.93;9.65;;;10.70;99.90;;;;;;5021503;28;20034;-77
2023/04/22 07:00:17;;;;;;;12.95;9.40;;;10.80;99.90;;;;;;5060235;28;20076;-77
2023/04/22 07:02:42;;;;;;;13.10;9.35;;;10.80;99.90;;;;;;5018301;28;20034;-77
2023/04/22 07:05:08;;;;;;;12.85;8.88;;;10.80;99.90;;;;;;5026354;28;20041;-77
2023/04/22 07:07:34;;;;;;;13.93;9.45;;;10.90;99.90;;;;;;5021667;28;20806;-77
2023/04/22 07:10:00;;;;;;;13.73;8.98;;;11.00;99.90;;;;;;5018963;28;20105;-77
2023/04/22 07:12:25;;;;;;;14.63;10.27;;;10.90;99.90;;;;;;5004934;28;20095;-79
2023/04/22 07:14:51;;;;;;;13.98;9.73;;;10.90;99.90;;;;;;5016408;28;20045;-77
2023/04/22 07:17:20;;;;;;;12.93;9.98;;;11.00;99.90;;;;;;5016884;28;20124;-77
2023/04/22 07:19:46;;;;;;;14.05;10.95;;;11.00;99.90;;;;;;5050765;28;20081;-78
2023/04/22 07:22:12;;;;;;;14.75;10.63;;;11.10;99.90;;;;;;5021573;28;20179;-77
2023/04/22 07:24:38;;;;;;;13.43;10.35;;;11.10;99.90;;;;;;5023510;28;20056;-76
2023/04/22 07:27:04;;;;;;;13.80;10.20;;;11.10;99.90;;;;;;5007472;28;20133;-77
2023/04/22 07:29:30;;;;;;;13.05;9.85;;;11.20;99.90;;;;;;5038361;28;20125;-78
2023/04/22 07:31:56;;;;;;;14.18;9.80;;;11.20;99.90;;;;;;5022211;28;20060;-77
2023/04/22 07:34:22;;;;;;;13.73;10.00;;;11.20;99.90;;;;;;5008340;28;20069;-77
2023/04/22 07:36:53;;;;;;;12.82;9.57;;;11.30;99.90;;;;;;5007680;28;20457;-76
2023/04/22 07:39:21;;;;;;;13.63;10.60;;;11.30;99.90;;;;;;5028007;28;20105;-78
2023/04/22 07:41:50;;;;;;;13.98;9.90;;;11.40;99.90;;;;;;5009859;28;20537;-77
2023/04/22 07:44:20;;;;;;;14.25;10.48;;;11.40;99.90;;;;;;5024467;28;20148;-77
2023/04/22 07:46:46;;;;;;;12.75;9.45;;;11.50;99.90;;;;;;5008968;28;20049;-77
2023/04/22 07:49:16;;;;;;;14.02;9.55;;;11.50;99.90;;;;;;5027178;28;20045;-78
2023/04/22 07:51:43;;;;;;;14.82;11.30;;;11.50;99.90;;;;;;5016041;28;20064;-77
2023/04/22 07:54:08;;;;;;;12.98;10.25;;;11.60;99.90;;;;;;5011243;28;20426;-77
2023/04/22 07:56:34;;;;;;;12.63;9.82;;;11.70;99.90;;;;;;5007579;28;20049;-78
2023/04/22 07:59:00;;;;;;;13.82;10.25;;;11.70;99.90;;;;;;5049605;28;20050;-78
2023/04/22 08:01:26;;;;;;;13.80;9.98;;;11.80;99.90;;;;;;5020777;28;20061;-76
2023/04/22 08:03:51;;;;;;;14.88;10.05;;;11.80;99.90;;;;;;5014247;28;20071;-78
2023/04/22 08:06:17;;;;;;;15.18;10.57;;;11.90;99.90;;;;;;5012720;28;20033;-78
2023/04/22 08:08:43;;;;;;;14.48;10.85;;;11.90;99.90;;;;;;5012052;28;20056;-77
2023/04/22 08:11:09;;;;;;;15.93;11.40;;;12.00;99.90;;;;;;5010622;28;20041;-77
2023/04/22 08:13:34;;;;;;;15.98;10.57;;;12.00;99.90;;;;;;5016726;28;20080;-79
2023/04/22 08:16:02;;;;;;;14.38;10.52;;;12.10;99.90;;;;;;5051176;28;20045;-78
2023/04/22 08:18:28;;;;;;;14.82;11.02;;;12.20;99.90;;;;;;5018343;28;20183;-77
2023/04/22 08:20:54;;;;;;;14.05;10.73;;;12.20;99.90;;;;;;4996476;28;20457;-78
2023/04/22 08:23:21;;;;;;;18.10;11.38;;;12.30;99.90;;;;;;4998230;28;20223;-76
2023/04/22 08:25:50;;;;;;;13.60;10.57;;;12.30;99.90;;;;;;5049868;28;20124;-78
2023/04/22 08:28:16;;;;;;;13.75;10.38;;;12.40;99.90;;;;;;5058095;28;20144;-76
2023/04/22 08:30:42;;;;;;;16.15;10.65;;;12.50;99.90;;;;;;5045893;28;20561;-76
2023/04/22 08:33:08;;;;;;;15.35;10.85;;;12.60;99.90;;;;;;5024392;28;20133;-78
2023/04/22 08:35:35;;;;;;;14.18;10.40;;;12.60;99.90;;;;;;5015956;28;20049;-77
2023/04/22 08:38:01;;;;;;;16.30;10.90;;;12.80;99.90;;;;;;5032847;28;20506;-77
2023/04/22 08:40:27;;;;;;;14.90;10.10;;;12.90;99.90;;;;;;4999655;28;20047;-78
2023/04/22 08:42:57;;;;;;;15.23;10.77;;;13.00;99.90;;;;;;5016013;28;20041;-78
2023/04/22 08:45:23;;;;;;;12.88;10.27;;;13.20;99.90;;;;;;5017616;28;20151;-76
2023/04/22 08:47:52;;;;;;;13.02;10.30;;;13.30;99.90;;;;;;5036299;28;20049;-78
2023/04/22 08:50:20;;;;;;;12.10;9.90;;;13.40;99.90;;;;;;5024388;28;20041;-77
2023/04/22 08:52:46;;;;;;;16.08;10.90;;;13.50;99.90;;;;;;5022122;28;20049;-76
2023/04/22 08:55:12;;;;;;;12.57;9.52;;;13.60;99.90;;;;;;5018249;28;20091;-76
2023/04/22 08:57:39;;;;;;;16.27;10.13;;;13.70;99.90;;;;;;5023726;28;20069;-73
2023/04/22 09:00:07;;;;;;;15.82;10.13;;;13.80;99.90;;;;;;4999857;28;20049;-77
2023/04/22 09:02:35;;;;;;;16.05;9.73;;;13.90;99.90;;;;;;4997644;28;20053;-77
2023/04/22 09:05:02;;;;;;;16.15;9.93;;;14.00;99.90;;;;;;5013249;28;20056;-74
2023/04/22 09:07:30;;;;;;;14.48;9.60;;;14.10;99.90;;;;;;5021419;28;20053;-75
2023/04/22 09:09:56;;;;;;;15.40;10.27;;;14.20;99.90;;;;;;5001815;28;20170;-76
2023/04/22 09:12:23;;;;;;;13.25;9.90;;;14.30;99.90;;;;;;5020129;28;20041;-75
2023/04/22 09:14:53;;;;;;;15.32;9.80;;;14.50;99.90;;;;;;5018617;28;20756;-73
2023/04/22 09:17:32;;;;;;;12.43;9.35;;;14.50;99.90;;;;;;5019617;28;20510;-72
2023/04/22 09:20:00;;;;;;;11.98;9.55;;;14.70;99.90;;;;;;5015724;28;20099;-74
2023/04/22 09:22:36;;;;;;;11.68;8.75;;;14.80;99.90;;;;;;5014731;28;20073;-74
2023/04/22 09:25:03;;;;;;;13.60;9.82;;;15.00;99.90;;;;;;5012242;28;20046;-74
2023/04/22 09:27:29;;;;;;;14.40;9.68;;;15.10;99.90;;;;;;5017348;28;20045;-74
2023/04/22 09:29:55;;;;;;;12.70;9.45;;;15.20;99.90;;;;;;4999003;28;20048;-73
2023/04/22 09:32:23;;;;;;;12.15;8.95;;;15.20;99.90;;;;;;4999902;28;20470;-73
2023/04/22 09:34:51;;;;;;;12.65;8.85;;;15.30;99.90;;;;;;5015677;28;20433;-72
2023/04/22 09:37:24;;;;;;;13.20;8.95;;;15.40;99.90;;;;;;5000207;28;20332;-73
2023/04/22 09:39:50;;;;;;;12.43;8.65;;;15.50;99.90;;;;;;5018983;28;20375;-72
2023/04/22 09:42:17;;;;;;;10.65;8.10;;;15.50;99.90;;;;;;5004106;28;20657;-76
2023/04/22 09:44:45;;;;;;;12.07;9.27;;;15.50;99.90;;;;;;5018402;28;20144;-75
2023/04/22 09:47:12;;;;;;;18.70;9.38;;;15.50;99.90;;;;;;5034594;28;20045;-75
2023/04/22 09:49:38;;;;;;;11.57;8.43;;;15.60;99.90;;;;;;5018875;28;20103;-75
2023/04/22 09:52:04;;;;;;;12.70;9.07;;;15.50;99.90;;;;;;5001737;28;20050;-73
2023/04/22 09:54:30;;;;;;;15.15;9.23;;;15.50;99.90;;;;;;5020583;28;20049;-76
2023/04/22 09:56:56;;;;;;;11.10;8.20;;;15.60;99.90;;;;;;5018527;28;20068;-75
2023/04/22 09:59:27;;;;;;;10.82;8.18;;;15.60;99.90;;;;;;4986499;28;20045;-78
2023/04/22 10:01:57;;;;;;;12.63;8.38;;;15.60;99.90;;;;;;5005870;28;20081;-74
2023/04/22 10:04:26;;;;;;;12.13;8.73;;;15.70;99.90;;;;;;4990382;28;20042;-75
2023/04/22 10:06:52;;;;;;;11.30;7.82;;;15.70;99.90;;;;;;5007509;28;20045;-74
2023/04/22 10:09:21;;;;;;;11.48;7.85;;;15.70;99.90;;;;;;4988962;28;20829;-77
2023/04/22 10:11:49;;;;;;;10.75;7.38;;;15.80;99.90;;;;;;5003588;28;20054;-78
2023/04/22 10:14:14;;;;;;;13.93;7.85;;;15.90;99.90;;;;;;5003802;28;20053;-77
2023/04/22 10:16:44;;;;;;;12.05;8.05;;;16.00;99.90;;;;;;5039204;28;20057;-75
2023/04/22 10:19:13;;;;;;;9.60;7.65;;;16.10;99.90;;;;;;5007895;28;20310;-74
2023/04/22 10:21:45;;;;;;;12.05;7.65;;;16.20;99.90;;;;;;5022501;28;20052;-70
2023/04/22 10:24:18;;;;;;;15.80;8.00;;;16.30;99.90;;;;;;5011430;28;20042;-74
2023/04/22 10:26:50;;;;;;;10.90;7.15;;;16.40;99.90;;;;;;5010766;28;20054;-73
2023/04/22 10:29:18;;;;;;;10.05;6.97;;;16.50;99.90;;;;;;5022490;28;20044;-72
2023/04/22 10:31:55;;;;;;;9.13;6.90;;;16.60;99.90;;;;;;5017114;28;20048;-72
2023/04/22 10:34:21;;;;;;;9.38;6.63;;;16.70;99.90;;;;;;5021152;28;20081;-73
2023/04/22 10:36:53;;;;;;;10.10;6.90;;;16.70;99.90;;;;;;5038193;28;20060;-75
2023/04/22 10:39:23;;;;;;;10.73;6.93;;;16.80;99.90;;;;;;5010205;28;20042;-77
2023/04/22 10:42:08;;;;;;;10.95;6.03;;;16.90;99.90;;;;;;5038003;28;20063;-74
2023/04/22 10:44:51;;;;;;;8.95;5.93;;;16.90;99.90;;;;;;5056922;28;20048;-76
2023/04/22 10:47:37;;;;;;;12.68;6.72;;;17.00;99.90;;;;;;5022336;28;20142;-78
2023/04/22 10:50:11;;;;;;;7.82;5.50;;;17.10;99.90;;;;;;5022685;28;20041;-77
2023/04/22 10:52:38;;;;;;;8.57;6.00;;;17.30;99.90;;;;;;5040203;28;20034;-77
2023/04/22 10:55:04;;;;;;;9.45;5.80;;;17.30;99.90;;;;;;5027484;28;20084;-78
2023/04/22 10:57:38;;;;;;;9.82;6.70;;;17.50;99.90;;;;;;5014916;28;20053;-78
2023/04/22 11:00:23;;;;;;;9.88;5.90;;;17.50;99.90;;;;;;5030209;28;20429;-77
2023/04/22 11:03:04;;;;;;;10.32;5.68;;;17.60;99.90;;;;;;5048681;28;20049;-77
2023/04/22 11:05:30;;;;;;;9.05;5.28;;;17.70;99.90;;;;;;5062272;28;20361;-77
2023/04/22 11:08:03;;;;;;;9.32;6.07;;;17.70;99.90;;;;;;5008190;28;20120;-77
2023/04/22 11:10:39;;;;;;;8.38;5.47;;;17.80;99.90;;;;;;5026699;28;20045;-77
2023/04/22 11:13:07;;;;;;;9.18;5.28;;;17.90;99.90;;;;;;5010144;28;20051;-77
2023/04/22 11:15:36;;;;;;;8.45;5.15;;;17.90;99.90;;;;;;5028590;28;20052;-77
2023/04/22 11:18:02;;;;;;;10.10;5.70;;;18.00;99.90;;;;;;5023091;28;20073;-78
2023/04/22 11:20:29;;;;;;;10.23;5.22;;;18.10;99.90;;;;;;5026216;28;20085;-77
2023/04/22 11:22:56;;;;;;;9.55;5.32;;;18.20;99.90;;;;;;5012384;28;20053;-78
2023/04/22 11:25:23;;;;;;;9.25;5.57;;;18.30;99.90;;;;;;5006351;28;20049;-77
2023/04/22 11:27:51;;;;;;;9.18;5.05;;;18.30;99.90;;;;;;5059103;28;20041;-75
2023/04/22 11:30:22;;;;;;;8.10;5.30;;;18.40;99.90;;;;;;5024795;28;20045;-77
2023/04/22 11:32:53;;;;;;;9.15;6.03;;;18.40;99.90;;;;;;5025023;28;20517;-78
2023/04/22 11:35:31;;;;;;;12.60;7.15;;;18.50;99.90;;;;;;5026775;28;20434;-77
2023/04/22 11:37:59;;;;;;;9.93;6.88;;;18.50;99.90;;;;;;5014964;28;20038;-77
2023/04/22 11:40:37;;;;;;;8.93;6.15;;;18.50;99.90;;;;;;5049838;28;20045;-77
2023/04/22 11:43:04;;;;;;;9.68;6.05;;;18.50;99.90;;;;;;5010226;28;20045;-77
2023/04/22 11:45:32;;;;;;;11.15;6.68;;;18.60;99.90;;;;;;5021316;28;20049;-77
2023/04/22 11:47:58;;;;;;;9.73;6.60;;;18.60;99.90;;;;;;5050645;28;20049;-78
2023/04/22 11:50:27;;;;;;;8.57;6.05;;;18.60;99.90;;;;;;5011019;28;20318;-78
2023/04/22 11:53:00;;;;;;;8.80;5.20;;;18.60;99.90;;;;;;5022314;28;20540;-77
2023/04/22 11:55:29;;;;;;;11.18;5.22;;;18.60;99.90;;;;;;5005949;28;20049;-78
2023/04/22 11:58:09;;;;;;;7.70;4.57;;;18.60;99.90;;;;;;5023796;28;20049;-78
2023/04/22 12:00:37;;;;;;;10.15;5.25;;;18.60;99.90;;;;;;5006251;28;20045;-77
2023/04/22 12:03:06;;;;;;;9.57;4.95;;;18.60;99.90;;;;;;5012623;28;20042;-77
2023/04/22 12:05:33;;;;;;;7.43;4.72;;;18.70;99.90;;;;;;5022775;28;20554;-77
2023/04/22 12:08:01;;;;;;;7.65;4.18;;;18.70;99.90;;;;;;5006685;28;20489;-78
2023/04/22 12:10:27;;;;;;;7.22;4.43;;;18.70;99.90;;;;;;5008340;28;20112;-78
2023/04/22 12:12:53;;;;;;;8.20;4.72;;;18.70;99.90;;;;;;5023826;28;20033;-79
2023/04/22 12:15:19;;;;;;;8.48;4.57;;;18.70;99.90;;;;;;5026011;28;20053;-79
2023/04/22 12:17:45;;;;;;;9.50;4.93;;;18.80;99.90;;;;;;5035901;28;20071;-79
2023/04/22 12:20:11;;;;;;;8.07;4.60;;;18.80;99.90;;;;;;5023338;28;20107;-80
2023/04/22 12:22:38;;;;;;;10.30;5.35;;;18.80;99.90;;;;;;5052166;28;20045;-80
2023/04/22 12:25:04;;;;;;;7.15;4.57;;;18.80;99.90;;;;;;5024158;28;20128;-79
2023/04/22 12:27:30;;;;;;;8.07;4.35;;;18.80;99.90;;;;;;5008364;28;20111;-79
2023/04/22 12:29:57;;;;;;;8.45;5.25;;;18.80;99.90;;;;;;5013284;28;20050;-80
2023/04/22 12:32:25;;;;;;;8.27;5.40;;;18.70;99.90;;;;;;5008350;28;20080;-79
2023/04/22 12:34:51;;;;;;;8.82;5.20;;;18.70;99.90;;;;;;4995620;28;20045;-78
2023/04/22 12:37:17;;;;;;;8.30;5.85;;;18.70;99.90;;;;;;5018050;28;20072;-79
2023/04/22 12:39:44;;;;;;;11.15;5.70;;;18.70;99.90;;;;;;5026773;28;20057;-79